createdAt,value
2019-02-23T00:02:31.012Z,21.70
2019-02-23T00:05:35.808Z,21.70
2019-02-23T00:08:40.752Z,21.70
2019-02-23T00:11:45.353Z,21.70
2019-02-23T00:14:50.069Z,21.70
2019-02-23T00:17:56.420Z,21.70
2019-02-23T00:21:02.695Z,21.60
2019-02-23T00:24:07.520Z,21.60
2019-02-23T00:27:12.355Z,21.60
2019-02-23T00:30:16.992Z,21.60
2019-02-23T00:33:21.921Z,21.60
2019-02-23T00:36:26.566Z,21.60
2019-02-23T00:39:31.330Z,21.60
2019-02-23T00:42:36.226Z,21.60
2019-02-23T00:45:40.840Z,21.60
2019-02-23T00:48:45.525Z,21.60
2019-02-23T00:51:51.929Z,21.60
2019-02-23T00:54:56.735Z,21.60
2019-02-23T00:58:01.491Z,21.60
2019-02-23T01:01:07.243Z,21.50
2019-02-23T01:04:12.069Z,21.50
2019-02-23T01:07:18.095Z,21.50
2019-02-23T01:10:22.861Z,21.50
2019-02-23T01:13:27.689Z,21.50
2019-02-23T01:16:32.603Z,21.50
2019-02-23T01:19:47.274Z,21.50
2019-02-23T01:22:43.600Z,21.50
2019-02-23T01:25:48.452Z,21.50
2019-02-23T01:28:53.372Z,21.50
2019-02-23T01:31:58.209Z,21.40
2019-02-23T01:35:02.864Z,21.40
2019-02-23T01:38:07.561Z,21.40
2019-02-23T01:41:12.369Z,21.40
2019-02-23T01:44:17.001Z,21.40
2019-02-23T01:47:22.646Z,21.40
2019-02-23T01:50:27.085Z,21.40
2019-02-23T01:53:31.831Z,21.40
2019-02-23T01:56:36.768Z,21.40
2019-02-23T01:59:41.447Z,21.30
2019-02-23T02:02:46.408Z,21.40
2019-02-23T02:05:51.126Z,21.30
2019-02-23T02:08:57.917Z,21.40
2019-02-23T02:12:02.726Z,21.40
2019-02-23T02:15:09.610Z,21.40
2019-02-23T02:18:14.345Z,21.30
2019-02-23T02:21:19.192Z,21.30
2019-02-23T02:24:23.842Z,21.30
2019-02-23T02:27:28.742Z,21.30
2019-02-23T02:30:33.578Z,21.30
2019-02-23T02:34:25.251Z,21.30
2019-02-23T02:37:29.999Z,21.30
2019-02-23T02:40:34.706Z,21.30
2019-02-23T02:43:40.588Z,21.30
2019-02-23T02:46:45.442Z,21.30
2019-02-23T02:49:50.236Z,21.30
2019-02-23T02:52:55.182Z,21.30
2019-02-23T02:55:59.884Z,21.30
2019-02-23T02:59:04.628Z,21.30
2019-02-23T03:02:09.566Z,21.30
2019-02-23T03:05:14.507Z,21.30
2019-02-23T03:08:19.315Z,21.30
2019-02-23T03:11:23.951Z,21.30
2019-02-23T03:14:31.643Z,21.30
2019-02-23T03:17:37.705Z,21.30
2019-02-23T03:20:42.540Z,21.30
2019-02-23T03:23:47.259Z,21.30
2019-02-23T03:26:52.101Z,21.30
2019-02-23T03:29:56.922Z,21.30
2019-02-23T03:33:01.540Z,21.30
2019-02-23T03:36:06.438Z,21.30
2019-02-23T03:39:11.199Z,21.30
2019-02-23T03:42:16.058Z,21.30
2019-02-23T03:45:20.785Z,21.30
2019-02-23T03:48:26.500Z,21.30
2019-02-23T03:51:31.142Z,21.30
2019-02-23T03:54:35.979Z,21.30
2019-02-23T03:57:40.842Z,21.30
2019-02-23T04:00:45.532Z,21.30
2019-02-23T04:03:52.361Z,21.30
2019-02-23T04:06:58.174Z,21.30
2019-02-23T04:10:03.047Z,21.30
2019-02-23T04:13:07.707Z,21.30
2019-02-23T04:16:12.367Z,21.30
2019-02-23T04:19:17.211Z,21.30
2019-02-23T04:22:21.804Z,21.30
2019-02-23T04:25:26.424Z,21.30
2019-02-23T04:28:31.252Z,21.30
2019-02-23T04:31:35.996Z,21.30
2019-02-23T04:34:40.810Z,21.30
2019-02-23T04:37:45.449Z,21.30
2019-02-23T04:40:51.149Z,21.20
2019-02-23T04:43:55.740Z,21.20
2019-02-23T04:47:00.463Z,21.20
2019-02-23T04:50:05.293Z,21.20
2019-02-23T04:53:10.112Z,21.20
2019-02-23T04:56:14.838Z,21.20
2019-02-23T04:59:19.680Z,21.20
2019-02-23T05:02:24.394Z,21.20
2019-02-23T05:05:30.429Z,21.30
2019-02-23T05:08:35.277Z,21.30
2019-02-23T05:11:39.799Z,21.40
2019-02-23T05:14:44.335Z,21.40
2019-02-23T05:17:49.050Z,21.40
2019-02-23T05:20:53.603Z,21.40
2019-02-23T05:23:58.098Z,21.40
2019-02-23T05:27:02.820Z,21.40
2019-02-23T05:30:08.586Z,21.40
2019-02-23T05:33:13.523Z,21.40
2019-02-23T05:36:18.447Z,21.30
2019-02-23T05:39:22.977Z,21.20
2019-02-23T05:42:27.801Z,21.20
2019-02-23T05:45:32.532Z,21.20
2019-02-23T05:48:37.269Z,21.20
2019-02-23T05:51:42.097Z,21.30
2019-02-23T05:54:47.028Z,21.20
2019-02-23T05:57:51.737Z,21.10
2019-02-23T06:00:56.279Z,21.10
2019-02-23T06:04:01.113Z,21.20
2019-02-23T06:07:05.939Z,21.20
2019-02-23T06:10:11.287Z,21.20
2019-02-23T06:13:15.909Z,21.20
2019-02-23T06:16:20.761Z,21.20
2019-02-23T06:19:25.681Z,21.30
2019-02-23T06:22:30.396Z,21.30
2019-02-23T06:25:36.197Z,21.30
2019-02-23T06:28:40.976Z,21.30
2019-02-23T06:31:45.902Z,21.30
2019-02-23T06:34:50.761Z,21.30
2019-02-23T06:37:55.575Z,21.30
2019-02-23T06:41:00.304Z,21.40
2019-02-23T06:44:04.913Z,21.30
2019-02-23T06:47:09.755Z,21.30
2019-02-23T06:50:14.684Z,21.10
2019-02-23T06:53:19.529Z,21.00
2019-02-23T06:56:24.375Z,21.20
2019-02-23T06:59:29.175Z,21.20
2019-02-23T07:02:33.926Z,21.30
2019-02-23T07:05:38.543Z,21.30
2019-02-23T07:08:43.381Z,21.40
2019-02-23T07:11:49.408Z,21.40
2019-02-23T07:14:54.056Z,21.40
2019-02-23T07:17:58.778Z,21.40
2019-02-23T07:21:03.605Z,21.40
2019-02-23T07:24:08.338Z,21.50
2019-02-23T07:27:13.175Z,21.50
2019-02-23T07:30:17.951Z,21.60
2019-02-23T07:33:32.448Z,21.60
2019-02-23T07:36:30.307Z,21.60
2019-02-23T07:39:34.925Z,21.60
2019-02-23T07:42:39.788Z,21.70
2019-02-23T07:45:44.610Z,21.80
2019-02-23T07:48:50.480Z,21.80
2019-02-23T07:51:56.120Z,21.80
2019-02-23T07:55:00.839Z,21.80
2019-02-23T07:58:05.226Z,21.90
2019-02-23T08:01:09.628Z,21.90
2019-02-23T08:04:14.078Z,22.00
2019-02-23T08:07:18.465Z,22.10
2019-02-23T08:10:23.129Z,22.20
2019-02-23T08:13:27.875Z,22.30
2019-02-23T08:16:32.611Z,22.40
2019-02-23T08:19:37.257Z,22.60
2019-02-23T08:22:41.952Z,22.70
2019-02-23T08:25:46.603Z,22.80
2019-02-23T08:28:51.113Z,22.90
2019-02-23T08:31:55.933Z,22.70
2019-02-23T08:35:00.859Z,22.80
2019-02-23T08:38:05.589Z,23.00
2019-02-23T08:41:10.456Z,22.70
2019-02-23T08:44:16.159Z,22.90
2019-02-23T08:47:21.052Z,22.70
2019-02-23T08:50:25.744Z,22.50
2019-02-23T08:53:30.364Z,22.30
2019-02-23T08:56:35.078Z,22.20
2019-02-23T08:59:39.838Z,22.10
2019-02-23T09:02:44.653Z,22.10
2019-02-23T09:05:49.383Z,22.10
2019-02-23T09:08:54.313Z,22.00
2019-02-23T09:11:59.040Z,22.10
2019-02-23T09:15:03.665Z,22.10
2019-02-23T09:18:08.600Z,22.20
2019-02-23T09:21:13.428Z,22.30
2019-02-23T09:24:18.292Z,22.20
2019-02-23T09:27:23.085Z,22.30
2019-02-23T09:30:27.831Z,22.30
2019-02-23T09:33:32.556Z,22.30
2019-02-23T09:36:37.392Z,22.20
2019-02-23T09:39:42.206Z,22.10
2019-02-23T09:42:47.148Z,22.10
2019-02-23T09:45:51.973Z,22.00
2019-02-23T09:48:56.816Z,22.00
2019-02-23T09:52:01.382Z,22.00
2019-02-23T09:55:06.159Z,22.00
2019-02-23T09:58:10.666Z,21.90
2019-02-23T10:01:15.300Z,21.90
2019-02-23T10:04:20.017Z,21.90
2019-02-23T10:07:24.757Z,21.90
2019-02-23T10:10:29.604Z,21.90
2019-02-23T10:13:34.434Z,22.00
2019-02-23T10:16:39.145Z,22.20
2019-02-23T10:19:43.983Z,22.30
2019-02-23T10:22:48.817Z,22.30
2019-02-23T10:25:53.569Z,22.40
2019-02-23T10:28:58.459Z,22.50
2019-02-23T10:32:03.110Z,22.40
2019-02-23T10:35:09.016Z,22.50
2019-02-23T10:38:13.796Z,22.40
2019-02-23T10:41:18.401Z,22.40
2019-02-23T10:44:23.149Z,22.20
2019-02-23T10:47:27.966Z,22.20
2019-02-23T10:50:32.909Z,22.20
2019-02-23T10:53:37.740Z,22.30
2019-02-23T10:56:42.548Z,22.30
2019-02-23T10:59:47.171Z,22.30
2019-02-23T11:02:51.831Z,22.30
2019-02-23T11:05:56.651Z,22.30
2019-02-23T11:09:01.613Z,22.30
2019-02-23T11:12:06.398Z,22.30
2019-02-23T11:15:11.837Z,22.20
2019-02-23T11:18:16.470Z,22.20
2019-02-23T11:21:21.089Z,22.20
2019-02-23T11:24:25.711Z,22.20
2019-02-23T11:27:30.460Z,22.10
2019-02-23T11:30:35.185Z,22.20
2019-02-23T11:33:39.945Z,22.20
2019-02-23T11:36:44.729Z,22.20
2019-02-23T11:39:49.513Z,22.20
2019-02-23T11:42:54.393Z,22.20
2019-02-23T11:45:59.334Z,22.20
2019-02-23T11:49:04.158Z,22.20
2019-02-23T11:52:09.000Z,22.20
2019-02-23T11:55:13.713Z,22.10
2019-02-23T11:58:18.561Z,22.10
2019-02-23T12:01:23.413Z,22.10
2019-02-23T12:04:28.099Z,22.10
2019-02-23T12:07:32.724Z,22.10
2019-02-23T12:10:37.363Z,22.10
2019-02-23T12:13:41.885Z,22.00
2019-02-23T12:16:46.643Z,22.00
2019-02-23T12:19:51.347Z,22.00
2019-02-23T12:22:56.302Z,21.90
2019-02-23T12:26:01.217Z,21.90
2019-02-23T12:29:05.947Z,21.90
2019-02-23T12:32:10.661Z,21.90
2019-02-23T12:35:16.333Z,21.90
2019-02-23T12:38:21.144Z,21.80
2019-02-23T12:41:25.989Z,21.80
2019-02-23T12:44:30.748Z,21.80
2019-02-23T12:47:35.520Z,21.80
2019-02-23T12:50:40.503Z,21.80
2019-02-23T12:53:45.025Z,21.80
2019-02-23T12:56:49.745Z,21.70
2019-02-23T12:59:54.436Z,21.70
2019-02-23T13:02:59.182Z,21.70
2019-02-23T13:06:04.040Z,21.70
2019-02-23T13:09:26.646Z,21.70
2019-02-23T13:12:37.197Z,21.70
2019-02-23T13:15:49.602Z,21.70
2019-02-23T13:19:41.434Z,21.70
2019-02-23T13:23:07.937Z,21.70
2019-02-23T13:26:54.626Z,21.60
2019-02-23T13:30:16.870Z,21.60
2019-02-23T13:34:20.649Z,21.60
2019-02-23T13:38:14.901Z,21.60
2019-02-23T13:41:29.224Z,21.60
2019-02-23T13:45:11.133Z,21.60
2019-02-23T13:48:37.139Z,21.60
2019-02-23T13:52:15.039Z,21.60
2019-02-23T13:56:18.710Z,21.60
2019-02-23T14:00:13.647Z,21.60
2019-02-23T14:03:58.024Z,21.50
2019-02-23T14:07:30.479Z,21.50
2019-02-23T14:11:11.245Z,21.50
2019-02-23T14:14:24.057Z,21.50
2019-02-23T14:18:13.706Z,21.50
2019-02-23T14:22:05.293Z,21.50
2019-02-23T14:25:59.880Z,21.50
2019-02-23T14:29:43.199Z,21.40
2019-02-23T14:33:29.782Z,21.40
2019-02-23T14:37:05.304Z,21.40
2019-02-23T14:40:43.599Z,21.40
2019-02-23T14:44:04.754Z,21.40
2019-02-23T14:47:52.042Z,21.40
2019-02-23T14:51:46.887Z,21.30
2019-02-23T14:55:05.851Z,21.30
2019-02-23T14:58:57.227Z,21.30
2019-02-23T15:03:01.938Z,21.30
2019-02-23T15:06:43.101Z,21.30
2019-02-23T15:10:16.239Z,21.30
2019-02-23T15:13:55.197Z,21.30
2019-02-23T15:17:43.584Z,21.30
2019-02-23T15:21:21.387Z,21.30
2019-02-23T15:25:19.453Z,21.30
2019-02-23T15:29:00.997Z,21.30
2019-02-23T15:32:42.185Z,21.30
2019-02-23T15:36:21.640Z,21.30
2019-02-23T15:39:50.423Z,21.30
2019-02-23T15:43:50.281Z,21.30
2019-02-23T15:47:23.983Z,21.20
2019-02-23T15:53:44.170Z,21.20
2019-02-23T15:56:49.094Z,21.20
2019-02-23T15:59:53.736Z,21.20
2019-02-23T16:02:58.654Z,21.20
2019-02-23T16:06:03.377Z,21.20
2019-02-23T16:09:08.108Z,21.20
2019-02-23T16:12:34.542Z,21.20
2019-02-23T16:15:41.181Z,21.20
2019-02-23T16:18:45.933Z,21.20
2019-02-23T16:21:52.994Z,21.20
2019-02-23T16:24:57.016Z,21.20
2019-02-23T16:28:01.874Z,21.20
2019-02-23T16:31:06.598Z,21.20
2019-02-23T16:34:11.433Z,21.20
2019-02-23T16:37:16.256Z,21.20
2019-02-23T16:40:21.080Z,21.10
2019-02-23T16:43:25.812Z,21.10
2019-02-23T16:46:32.351Z,21.10
2019-02-23T16:49:37.016Z,21.10
2019-02-23T16:52:41.838Z,21.10
2019-02-23T16:55:51.006Z,21.10
2019-02-23T16:58:53.105Z,21.10
2019-02-23T17:01:57.672Z,21.10
2019-02-23T17:05:02.490Z,21.10
2019-02-23T17:08:07.427Z,21.10
2019-02-23T17:11:12.238Z,21.10
2019-02-23T17:14:17.012Z,21.00
2019-02-23T17:17:21.802Z,21.00
2019-02-23T17:20:26.756Z,21.00
2019-02-23T17:23:31.481Z,21.00
2019-02-23T17:26:36.921Z,21.00
2019-02-23T17:29:41.874Z,21.00
2019-02-23T17:32:46.675Z,21.00
2019-02-23T17:35:51.544Z,21.00
2019-02-23T17:38:56.233Z,21.00
2019-02-23T17:42:01.067Z,21.00
2019-02-23T17:45:05.794Z,21.00
2019-02-23T17:48:10.833Z,21.00
2019-02-23T17:51:15.655Z,21.00
2019-02-23T17:54:20.402Z,21.00
2019-02-23T17:57:25.296Z,21.00
2019-02-23T18:00:30.074Z,21.00
2019-02-23T18:03:34.712Z,21.00
2019-02-23T18:06:39.607Z,21.00
2019-02-23T18:09:44.236Z,21.00
2019-02-23T18:12:49.168Z,21.00
2019-02-23T18:15:53.910Z,21.00
2019-02-23T18:18:58.716Z,21.00
2019-02-23T18:22:03.673Z,21.00
2019-02-23T18:25:08.647Z,21.00
2019-02-23T18:28:14.545Z,21.00
2019-02-23T18:31:19.312Z,21.00
2019-02-23T18:34:24.113Z,21.00
2019-02-23T18:37:28.745Z,20.90
2019-02-23T18:40:33.475Z,21.00
2019-02-23T18:43:38.280Z,21.00
2019-02-23T18:46:42.913Z,21.00
2019-02-23T18:49:47.677Z,20.90
2019-02-23T18:52:52.617Z,21.00
2019-02-23T18:55:57.237Z,20.90
2019-02-23T18:59:02.072Z,20.90
2019-02-23T19:02:06.879Z,20.90
2019-02-23T19:05:12.420Z,20.90
2019-02-23T19:08:17.357Z,20.90
2019-02-23T19:11:21.975Z,20.90
2019-02-23T19:14:26.916Z,20.90
2019-02-23T19:17:31.746Z,20.90
2019-02-23T19:20:36.587Z,20.90
2019-02-23T19:23:41.508Z,20.90
2019-02-23T19:26:46.346Z,20.90
2019-02-23T19:29:51.299Z,20.90
2019-02-23T19:32:56.211Z,20.90
2019-02-23T19:36:01.236Z,20.90
2019-02-23T19:39:06.202Z,20.90
2019-02-23T19:42:10.826Z,20.90
2019-02-23T19:45:16.912Z,20.90
2019-02-23T19:48:21.577Z,20.90
2019-02-23T19:51:26.396Z,20.80
2019-02-23T19:54:31.057Z,20.90
2019-02-23T19:57:35.751Z,20.90
2019-02-23T20:00:40.472Z,20.90
2019-02-23T20:03:47.519Z,20.90
2019-02-23T20:06:52.295Z,20.90
2019-02-23T20:09:57.132Z,20.90
2019-02-23T20:13:03.569Z,20.90
2019-02-23T20:16:08.543Z,20.90
2019-02-23T20:19:14.447Z,20.90
2019-02-23T20:22:19.330Z,20.90
2019-02-23T20:25:24.180Z,20.90
2019-02-23T20:28:28.977Z,20.90
2019-02-23T20:31:33.857Z,20.90
2019-02-23T20:34:38.466Z,20.90
2019-02-23T20:37:43.271Z,20.90
2019-02-23T20:40:48.163Z,20.90
2019-02-23T20:43:52.812Z,20.90
2019-02-23T20:46:57.659Z,20.80
2019-02-23T20:50:03.960Z,20.80
2019-02-23T20:53:08.859Z,20.80
2019-02-23T20:56:13.785Z,20.80
2019-02-23T20:59:18.494Z,20.80
2019-02-23T21:02:23.132Z,20.80
2019-02-23T21:05:27.667Z,20.80
2019-02-23T21:08:32.490Z,20.80
2019-02-23T21:11:37.328Z,20.80
2019-02-23T21:14:42.155Z,20.80
2019-02-23T21:17:46.937Z,20.80
2019-02-23T21:20:51.748Z,20.80
2019-02-23T21:23:56.543Z,20.80
2019-02-23T21:27:01.381Z,20.80
2019-02-23T21:30:06.606Z,20.80
2019-02-23T21:33:11.343Z,20.80
2019-02-23T21:36:15.853Z,20.80
2019-02-23T21:39:22.724Z,20.80
2019-02-23T21:42:27.457Z,20.80
2019-02-23T21:45:33.396Z,20.80
2019-02-23T21:48:38.046Z,20.80
2019-02-23T21:51:42.999Z,20.80
2019-02-23T21:54:47.526Z,20.80
2019-02-23T21:57:52.311Z,20.80
2019-02-23T22:00:58.648Z,20.80
2019-02-23T22:04:03.527Z,20.80
2019-02-23T22:07:08.278Z,20.80
2019-02-23T22:10:12.889Z,20.80
2019-02-23T22:13:17.722Z,20.80
2019-02-23T22:16:22.640Z,20.80
2019-02-23T22:19:28.351Z,20.80
2019-02-23T22:22:33.022Z,20.80
2019-02-23T22:25:37.657Z,20.80
2019-02-23T22:28:43.828Z,20.80
2019-02-23T22:31:48.547Z,20.80
2019-02-23T22:34:53.369Z,20.80
2019-02-23T22:37:59.893Z,20.80
2019-02-23T22:41:05.774Z,20.80
2019-02-23T22:44:10.510Z,20.80
2019-02-23T22:47:16.243Z,20.80
2019-02-23T22:50:20.996Z,20.80
2019-02-23T22:53:25.823Z,20.80
2019-02-23T22:56:32.400Z,20.80
2019-02-23T22:59:37.315Z,20.80
2019-02-23T23:02:41.870Z,20.80
2019-02-23T23:05:46.673Z,20.70
2019-02-23T23:08:51.523Z,20.70
2019-02-23T23:11:56.485Z,20.70
2019-02-23T23:15:03.267Z,20.70
2019-02-23T23:18:07.748Z,20.70
2019-02-23T23:21:12.672Z,20.70
2019-02-23T23:24:17.304Z,20.70
2019-02-23T23:27:22.031Z,20.70
2019-02-23T23:30:26.777Z,20.70
2019-02-23T23:33:31.391Z,20.70
2019-02-23T23:36:35.997Z,20.70
2019-02-23T23:39:40.640Z,20.70
2019-02-23T23:42:45.369Z,20.70
2019-02-23T23:45:50.203Z,20.70
2019-02-23T23:48:54.812Z,20.70
2019-02-23T23:51:59.461Z,20.70
2019-02-23T23:55:04.284Z,20.70
2019-02-23T23:58:10.149Z,20.70
